createdAt,value
2022-12-29T00:02:28.262Z,96306.00
2022-12-29T00:07:29.357Z,96307.00
2022-12-29T00:15:37.058Z,96303.00
2022-12-29T00:20:56.826Z,96295.00
2022-12-29T00:26:15.977Z,96294.00
2022-12-29T00:31:35.762Z,96297.00
2022-12-29T00:36:40.842Z,96284.00
2022-12-29T00:41:59.833Z,96270.00
2022-12-29T00:47:04.532Z,96270.00
2022-12-29T00:52:08.947Z,96273.00
2022-12-29T00:57:09.860Z,96259.00
2022-12-29T01:02:10.836Z,96256.00
2022-12-29T01:07:11.882Z,96236.00
2022-12-29T01:12:13.160Z,96243.00
2022-12-29T01:17:15.458Z,96239.00
2022-12-29T01:22:16.215Z,96239.00
2022-12-29T01:27:18.768Z,96240.00
2022-12-29T01:32:19.624Z,96253.00
2022-12-29T01:37:20.532Z,96233.00
2022-12-29T01:42:25.960Z,96241.00
2022-12-29T01:48:13.002Z,96247.00
2022-12-29T01:53:19.220Z,96243.00
2022-12-29T01:58:24.680Z,96248.00
2022-12-29T02:03:27.608Z,96232.00
2022-12-29T02:08:29.952Z,96211.00
2022-12-29T02:13:30.859Z,96224.00
2022-12-29T02:25:39.721Z,96213.00
2022-12-29T02:31:32.139Z,96206.00
2022-12-29T02:36:59.208Z,96208.00
2022-12-29T02:43:48.893Z,96204.00
2022-12-29T02:49:46.532Z,96197.00
2022-12-29T02:54:49.191Z,96183.00
2022-12-29T02:59:54.743Z,96187.00
2022-12-29T03:05:34.063Z,96173.00
2022-12-29T03:12:07.800Z,96173.00
2022-12-29T03:17:24.389Z,96161.00
2022-12-29T03:22:32.613Z,96162.00
2022-12-29T03:27:49.713Z,96153.00
2022-12-29T03:32:54.485Z,96153.00
2022-12-29T03:38:11.649Z,96150.00
2022-12-29T03:43:13.270Z,96132.00
2022-12-29T03:48:15.677Z,96135.00
2022-12-29T03:53:18.326Z,96130.00
2022-12-29T03:58:20.425Z,96124.00
2022-12-29T04:03:31.242Z,96125.00
2022-12-29T04:08:32.063Z,96149.00
2022-12-29T04:13:32.992Z,96138.00
2022-12-29T04:18:34.740Z,96134.00
2022-12-29T04:23:37.884Z,96140.00
2022-12-29T04:28:41.241Z,96135.00
2022-12-29T04:33:50.543Z,96131.00
2022-12-29T04:38:51.522Z,96125.00
2022-12-29T04:43:52.531Z,96127.00
2022-12-29T04:49:28.806Z,96124.00
2022-12-29T04:55:04.534Z,96125.00
2022-12-29T05:00:06.602Z,96144.00
2022-12-29T05:05:10.437Z,96141.00
2022-12-29T05:10:15.762Z,96138.00
2022-12-29T05:15:17.682Z,96157.00
2022-12-29T05:20:20.038Z,96144.00
2022-12-29T05:25:21.118Z,96149.00
2022-12-29T05:30:42.823Z,96137.00
2022-12-29T05:35:43.816Z,96143.00
2022-12-29T05:40:45.011Z,96141.00
2022-12-29T05:45:57.847Z,96147.00
2022-12-29T05:51:19.097Z,96148.00
2022-12-29T05:56:25.515Z,96146.00
2022-12-29T06:01:31.102Z,96148.00
2022-12-29T06:06:32.084Z,96144.00
2022-12-29T06:11:33.023Z,96139.00
2022-12-29T06:16:35.037Z,96123.00
2022-12-29T06:21:39.786Z,96136.00
2022-12-29T06:26:40.842Z,96140.00
2022-12-29T06:31:41.935Z,96141.00
2022-12-29T06:36:42.804Z,96134.00
2022-12-29T06:41:43.630Z,96125.00
2022-12-29T06:47:09.925Z,96130.00
2022-12-29T06:52:13.207Z,96135.00
2022-12-29T06:57:14.350Z,96126.00
2022-12-29T07:02:17.152Z,96117.00
2022-12-29T07:07:19.707Z,96145.00
2022-12-29T07:12:20.523Z,96137.00
2022-12-29T07:17:21.384Z,96138.00
2022-12-29T07:22:22.467Z,96138.00
2022-12-29T07:27:23.208Z,96145.00
2022-12-29T07:32:24.344Z,96158.00
2022-12-29T07:37:25.228Z,96165.00
2022-12-29T07:42:26.035Z,96177.00
2022-12-29T07:47:27.462Z,96168.00
2022-12-29T07:52:28.334Z,96181.00
2022-12-29T07:57:32.154Z,96178.00
2022-12-29T08:02:33.511Z,96174.00
2022-12-29T08:07:34.782Z,96181.00
2022-12-29T08:12:35.812Z,96188.00
2022-12-29T08:17:36.835Z,96200.00
2022-12-29T08:22:37.815Z,96211.00
2022-12-29T08:27:38.553Z,96206.00
2022-12-29T08:32:39.668Z,96214.00
2022-12-29T08:37:40.527Z,96216.00
2022-12-29T08:42:41.763Z,96213.00
2022-12-29T08:47:43.016Z,96220.00
2022-12-29T08:52:43.909Z,96223.00
2022-12-29T08:57:44.652Z,96213.00
2022-12-29T09:02:51.929Z,96215.00
2022-12-29T09:07:52.834Z,96225.00
2022-12-29T09:12:53.659Z,96226.00
2022-12-29T09:17:55.460Z,96233.00
2022-12-29T09:22:56.459Z,96252.00
2022-12-29T09:27:57.232Z,96244.00
2022-12-29T09:32:58.103Z,96242.00
2022-12-29T09:37:59.183Z,96246.00
2022-12-29T09:45:13.730Z,96246.00
2022-12-29T09:50:29.657Z,96248.00
2022-12-29T09:55:45.222Z,96258.00
2022-12-29T10:07:43.003Z,96251.00
2022-12-29T10:14:42.285Z,96264.00
2022-12-29T10:20:11.141Z,96255.00
2022-12-29T10:25:28.446Z,96257.00
2022-12-29T10:30:34.920Z,96260.00
2022-12-29T10:35:39.342Z,96252.00
2022-12-29T10:40:49.746Z,96268.00
2022-12-29T10:45:53.703Z,96275.00
2022-12-29T10:51:01.695Z,96280.00
2022-12-29T10:56:14.200Z,96265.00
2022-12-29T11:01:15.387Z,96281.00
2022-12-29T11:06:24.641Z,96277.00
2022-12-29T11:11:32.514Z,96272.00
2022-12-29T11:16:34.770Z,96271.00
2022-12-29T11:21:42.307Z,96277.00
2022-12-29T11:26:44.053Z,96282.00
2022-12-29T11:31:50.758Z,96288.00
2022-12-29T11:36:59.237Z,96299.00
2022-12-29T11:42:02.717Z,96301.00
2022-12-29T11:47:05.534Z,96294.00
2022-12-29T11:52:07.201Z,96305.00
2022-12-29T11:57:18.674Z,96307.00
2022-12-29T12:02:43.622Z,96295.00
2022-12-29T12:07:49.604Z,96300.00
2022-12-29T12:13:04.297Z,96299.00
2022-12-29T12:18:12.186Z,96291.00
2022-12-29T12:24:59.305Z,96294.00
2022-12-29T12:30:05.298Z,96293.00
2022-12-29T12:35:16.807Z,96302.00
2022-12-29T12:40:59.891Z,96305.00
2022-12-29T12:47:19.017Z,96288.00
2022-12-29T12:53:36.448Z,96299.00
2022-12-29T12:59:42.663Z,96282.00
2022-12-29T13:07:28.740Z,96283.00
2022-12-29T13:13:05.098Z,96289.00
2022-12-29T13:18:35.794Z,96283.00
2022-12-29T13:24:02.866Z,96296.00
2022-12-29T13:29:18.332Z,96297.00
2022-12-29T13:34:52.081Z,96300.00
2022-12-29T13:39:57.619Z,96300.00
2022-12-29T13:45:15.725Z,96308.00
2022-12-29T13:50:20.925Z,96298.00
2022-12-29T13:58:48.159Z,96292.00
2022-12-29T14:03:54.632Z,96310.00
2022-12-29T14:09:06.237Z,96322.00
2022-12-29T14:14:21.552Z,96325.00
2022-12-29T14:19:32.407Z,96337.00
2022-12-29T14:24:46.741Z,96342.00
2022-12-29T14:29:49.429Z,96344.00
2022-12-29T14:34:57.874Z,96342.00
2022-12-29T14:40:25.244Z,96327.00
2022-12-29T14:45:30.891Z,96329.00
2022-12-29T14:50:43.034Z,96342.00
2022-12-29T14:55:52.818Z,96361.00
2022-12-29T15:00:54.381Z,96376.00
2022-12-29T15:06:09.804Z,96372.00
2022-12-29T15:11:44.377Z,96382.00
2022-12-29T15:16:45.592Z,96371.00
2022-12-29T15:21:47.466Z,96385.00
2022-12-29T15:26:52.161Z,96378.00
2022-12-29T15:31:52.965Z,96397.00
2022-12-29T15:36:53.825Z,96398.00
2022-12-29T15:42:00.164Z,96399.00
2022-12-29T15:47:16.987Z,96407.00
2022-12-29T15:52:20.738Z,96403.00
2022-12-29T15:57:30.605Z,96398.00
2022-12-29T16:02:31.942Z,96399.00
2022-12-29T16:07:41.544Z,96406.00
2022-12-29T16:12:43.191Z,96411.00
2022-12-29T16:17:48.993Z,96425.00
2022-12-29T16:22:55.442Z,96424.00
2022-12-29T16:27:56.228Z,96421.00
2022-12-29T16:33:05.983Z,96432.00
2022-12-29T16:38:18.657Z,96440.00
2022-12-29T16:43:33.212Z,96453.00
2022-12-29T16:48:46.052Z,96454.00
2022-12-29T16:53:52.346Z,96466.00
2022-12-29T16:59:44.409Z,96471.00
2022-12-29T17:04:48.597Z,96466.00
2022-12-29T17:09:56.391Z,96469.00
2022-12-29T17:15:01.296Z,96450.00
2022-12-29T17:20:05.874Z,96463.00
2022-12-29T17:25:12.169Z,96465.00
2022-12-29T17:30:16.426Z,96485.00
2022-12-29T17:35:19.318Z,96475.00
2022-12-29T17:40:32.608Z,96472.00
2022-12-29T17:45:33.475Z,96467.00
2022-12-29T17:50:35.318Z,96471.00
2022-12-29T17:55:38.305Z,96474.00
2022-12-29T18:00:40.089Z,96490.00
2022-12-29T18:05:41.003Z,96494.00
2022-12-29T18:10:42.399Z,96491.00
2022-12-29T18:15:43.220Z,96492.00
2022-12-29T18:20:45.846Z,96502.00
2022-12-29T18:25:52.690Z,96506.00
2022-12-29T18:30:56.159Z,96509.00
2022-12-29T18:36:00.235Z,96505.00
2022-12-29T18:41:01.314Z,96512.00
2022-12-29T18:46:02.078Z,96513.00
2022-12-29T18:51:03.774Z,96517.00
2022-12-29T18:56:06.730Z,96518.00
2022-12-29T19:01:27.039Z,96531.00
2022-12-29T19:06:28.169Z,96527.00
2022-12-29T19:11:29.080Z,96530.00
2022-12-29T19:16:29.984Z,96538.00
2022-12-29T19:21:30.814Z,96534.00
2022-12-29T19:26:35.611Z,96531.00
2022-12-29T19:31:37.747Z,96528.00
2022-12-29T19:36:38.498Z,96534.00
2022-12-29T19:41:39.360Z,96529.00
2022-12-29T19:46:40.224Z,96525.00
2022-12-29T19:51:41.481Z,96536.00
2022-12-29T19:56:43.498Z,96538.00
2022-12-29T20:01:44.716Z,96545.00
2022-12-29T20:06:45.713Z,96552.00
2022-12-29T20:11:46.526Z,96558.00
2022-12-29T20:17:09.508Z,96561.00
2022-12-29T20:22:12.207Z,96543.00
2022-12-29T20:27:13.886Z,96559.00
2022-12-29T20:32:18.954Z,96549.00
2022-12-29T20:37:20.794Z,96558.00
2022-12-29T20:42:21.551Z,96566.00
2022-12-29T20:47:22.351Z,96576.00
2022-12-29T20:52:23.101Z,96588.00
2022-12-29T20:57:24.179Z,96598.00
2022-12-29T21:02:25.273Z,96609.00
2022-12-29T21:07:26.200Z,96615.00
2022-12-29T21:12:26.955Z,96611.00
2022-12-29T21:17:27.706Z,96625.00
2022-12-29T21:22:29.535Z,96633.00
2022-12-29T21:27:32.682Z,96609.00
2022-12-29T21:32:33.451Z,96623.00
2022-12-29T21:37:35.257Z,96618.00
2022-12-29T21:42:36.012Z,96627.00
2022-12-29T21:47:55.679Z,96627.00
2022-12-29T21:52:56.486Z,96630.00
2022-12-29T21:58:16.053Z,96642.00
2022-12-29T22:03:35.704Z,96652.00
2022-12-29T22:08:55.732Z,96661.00
2022-12-29T22:13:57.365Z,96671.00
2022-12-29T22:18:58.157Z,96670.00
2022-12-29T22:23:59.907Z,96668.00
2022-12-29T22:29:00.775Z,96673.00
2022-12-29T22:34:03.545Z,96672.00
2022-12-29T22:39:04.344Z,96684.00
2022-12-29T22:44:06.069Z,96702.00
2022-12-29T22:49:07.174Z,96703.00
2022-12-29T22:54:07.953Z,96719.00
2022-12-29T22:59:11.329Z,96708.00
2022-12-29T23:04:59.379Z,96717.00
2022-12-29T23:10:04.628Z,96719.00
2022-12-29T23:15:06.200Z,96729.00
2022-12-29T23:20:07.785Z,96736.00
2022-12-29T23:25:08.983Z,96735.00
2022-12-29T23:30:10.211Z,96735.00
2022-12-29T23:35:11.017Z,96734.00
2022-12-29T23:40:12.235Z,96741.00
2022-12-29T23:45:13.046Z,96744.00
2022-12-29T23:50:13.929Z,96750.00
2022-12-29T23:55:14.909Z,96747.00
